createdAt,value
2022-12-09T00:00:23.546Z,2.15
2022-12-09T00:02:50.580Z,2.16
2022-12-09T00:05:18.142Z,2.16
2022-12-09T00:07:44.832Z,2.15
2022-12-09T00:10:11.818Z,2.14
2022-12-09T00:12:38.847Z,2.16
2022-12-09T00:15:05.619Z,2.16
2022-12-09T00:17:32.321Z,2.17
2022-12-09T00:19:58.848Z,2.19
2022-12-09T00:22:26.415Z,2.19
2022-12-09T00:24:53.150Z,2.23
2022-12-09T00:27:19.627Z,2.21
2022-12-09T00:29:46.090Z,2.24
2022-12-09T00:32:12.689Z,2.22
2022-12-09T00:34:39.240Z,2.23
2022-12-09T00:37:05.901Z,2.21
2022-12-09T00:39:32.406Z,2.18
2022-12-09T00:41:59.017Z,2.16
2022-12-09T00:44:25.620Z,2.16
2022-12-09T00:46:52.223Z,2.13
2022-12-09T00:49:19.004Z,2.15
2022-12-09T00:51:45.908Z,2.14
2022-12-09T00:54:13.119Z,2.14
2022-12-09T00:56:39.714Z,2.12
2022-12-09T00:59:06.409Z,2.11
2022-12-09T01:01:33.083Z,2.10
2022-12-09T01:03:59.795Z,2.13
2022-12-09T01:06:26.756Z,2.12
2022-12-09T01:08:53.651Z,2.11
2022-12-09T01:11:21.153Z,2.08
2022-12-09T01:13:47.864Z,2.09
2022-12-09T01:16:18.908Z,2.06
2022-12-09T01:18:45.600Z,2.06
2022-12-09T01:21:12.307Z,2.04
2022-12-09T01:23:39.007Z,2.04
2022-12-09T01:26:06.730Z,2.01
2022-12-09T01:28:36.505Z,1.98
2022-12-09T01:31:10.121Z,1.95
2022-12-09T01:33:37.017Z,1.94
2022-12-09T01:36:07.328Z,1.94
2022-12-09T01:38:33.878Z,1.95
2022-12-09T01:41:00.529Z,1.98
2022-12-09T01:43:27.384Z,1.99
2022-12-09T01:45:54.260Z,1.98
2022-12-09T01:48:21.915Z,2.01
2022-12-09T01:50:51.552Z,2.02
2022-12-09T01:53:18.484Z,2.04
2022-12-09T01:55:45.127Z,2.03
2022-12-09T01:58:11.954Z,2.06
2022-12-09T02:00:38.682Z,2.03
2022-12-09T02:03:05.640Z,2.02
2022-12-09T02:05:32.480Z,2.00
2022-12-09T02:07:59.522Z,2.01
2022-12-09T02:10:26.340Z,2.03
2022-12-09T02:13:02.218Z,2.04
2022-12-09T02:15:40.261Z,2.07
2022-12-09T02:18:18.534Z,2.05
2022-12-09T02:20:46.043Z,2.05
2022-12-09T02:23:18.163Z,2.01
2022-12-09T02:25:48.314Z,1.99
2022-12-09T02:28:27.109Z,2.00
2022-12-09T02:31:12.642Z,1.99
2022-12-09T02:33:39.189Z,2.01
2022-12-09T02:36:05.904Z,1.99
2022-12-09T02:38:32.607Z,1.99
2022-12-09T02:41:02.671Z,2.00
2022-12-09T02:43:30.612Z,2.01
2022-12-09T02:45:57.313Z,2.01
2022-12-09T02:48:25.668Z,2.01
2022-12-09T02:50:52.143Z,2.01
2022-12-09T02:53:18.717Z,1.99
2022-12-09T02:55:45.531Z,2.00
2022-12-09T02:58:12.058Z,2.00
2022-12-09T03:00:38.586Z,2.01
2022-12-09T03:03:05.591Z,2.02
2022-12-09T03:05:47.897Z,2.05
2022-12-09T03:11:43.350Z,2.07
2022-12-09T03:14:09.904Z,2.06
2022-12-09T03:16:37.632Z,2.06
2022-12-09T03:19:19.425Z,2.05
2022-12-09T03:21:46.643Z,2.02
2022-12-09T03:24:13.718Z,2.00
2022-12-09T03:26:40.363Z,2.01
2022-12-09T03:29:07.651Z,1.99
2022-12-09T03:31:34.349Z,1.99
2022-12-09T03:34:02.338Z,2.00
2022-12-09T03:36:29.383Z,1.97
2022-12-09T03:38:56.241Z,1.96
2022-12-09T03:41:30.155Z,1.97
2022-12-09T03:44:02.133Z,1.98
2022-12-09T03:46:29.029Z,1.96
2022-12-09T03:48:56.421Z,1.94
2022-12-09T03:51:43.207Z,1.93
2022-12-09T03:54:33.351Z,1.18
2022-12-09T03:56:59.894Z,1.94
2022-12-09T03:59:30.002Z,1.96
2022-12-09T04:01:56.556Z,1.96
2022-12-09T04:04:23.555Z,1.97
2022-12-09T04:06:50.664Z,1.98
2022-12-09T04:09:17.171Z,1.99
2022-12-09T04:11:43.830Z,2.01
2022-12-09T04:14:15.229Z,2.00
2022-12-09T04:16:42.521Z,2.01
2022-12-09T04:19:09.146Z,2.02
2022-12-09T04:21:35.891Z,2.00
2022-12-09T04:24:02.544Z,2.00
2022-12-09T04:26:29.217Z,1.99
2022-12-09T04:28:55.665Z,2.00
2022-12-09T04:31:46.435Z,1.98
2022-12-09T04:34:12.999Z,1.98
2022-12-09T04:36:39.606Z,1.98
2022-12-09T04:42:34.154Z,1.94
2022-12-09T04:45:00.907Z,1.91
2022-12-09T04:47:27.863Z,1.91
2022-12-09T04:53:23.308Z,1.92
2022-12-09T04:55:49.773Z,1.91
2022-12-09T04:58:16.210Z,1.91
2022-12-09T05:04:10.423Z,1.90
2022-12-09T05:06:37.317Z,1.90
2022-12-09T05:09:04.325Z,1.96
2022-12-09T05:11:31.315Z,1.96
2022-12-09T05:13:57.954Z,1.93
2022-12-09T05:16:24.857Z,1.90
2022-12-09T05:18:51.613Z,1.88
2022-12-09T05:21:18.763Z,1.85
2022-12-09T05:23:45.801Z,1.83
2022-12-09T05:26:13.242Z,1.85
2022-12-09T05:28:40.207Z,1.87
2022-12-09T05:31:08.027Z,1.88
2022-12-09T05:33:35.028Z,1.90
2022-12-09T05:36:01.996Z,1.88
2022-12-09T05:38:29.943Z,1.86
2022-12-09T05:40:59.034Z,1.89
2022-12-09T05:43:25.951Z,1.90
2022-12-09T05:45:52.907Z,1.93
2022-12-09T05:48:19.521Z,1.92
2022-12-09T05:50:46.167Z,1.90
2022-12-09T05:53:12.848Z,1.91
2022-12-09T05:55:42.849Z,1.89
2022-12-09T05:58:09.763Z,1.87
2022-12-09T06:00:36.463Z,1.88
2022-12-09T06:03:03.422Z,1.85
2022-12-09T06:05:30.271Z,1.83
2022-12-09T06:07:59.017Z,1.83
2022-12-09T06:10:28.954Z,1.82
2022-12-09T06:12:56.169Z,1.84
2022-12-09T06:15:26.767Z,1.82
2022-12-09T06:17:56.583Z,1.82
2022-12-09T06:20:23.410Z,1.82
2022-12-09T06:22:50.266Z,1.82
2022-12-09T06:25:16.932Z,1.83
2022-12-09T06:27:43.873Z,1.82
2022-12-09T06:30:10.714Z,1.82
2022-12-09T06:32:37.502Z,1.83
2022-12-09T06:35:04.367Z,1.83
2022-12-09T06:37:32.692Z,1.84
2022-12-09T06:39:59.450Z,1.85
2022-12-09T06:42:26.000Z,1.87
2022-12-09T06:44:52.848Z,1.93
2022-12-09T06:47:19.433Z,1.92
2022-12-09T06:49:46.950Z,1.93
2022-12-09T06:52:14.216Z,1.96
2022-12-09T06:54:40.765Z,1.95
2022-12-09T06:57:07.326Z,1.94
2022-12-09T07:00:15.323Z,1.95
2022-12-09T07:02:41.994Z,1.96
2022-12-09T07:05:09.460Z,1.99
2022-12-09T07:07:36.286Z,2.00
2022-12-09T07:10:06.657Z,2.00
2022-12-09T07:12:33.473Z,2.03
2022-12-09T07:15:00.094Z,2.06
2022-12-09T07:17:27.088Z,2.05
2022-12-09T07:19:53.689Z,2.06
2022-12-09T07:22:20.946Z,2.05
2022-12-09T07:24:47.528Z,2.03
2022-12-09T07:27:19.205Z,2.03
2022-12-09T07:29:47.478Z,2.03
2022-12-09T07:32:14.868Z,2.08
2022-12-09T07:34:41.605Z,2.16
2022-12-09T07:37:08.675Z,2.12
2022-12-09T07:39:35.442Z,2.09
2022-12-09T07:42:02.260Z,2.05
2022-12-09T07:44:28.949Z,2.04
2022-12-09T07:46:55.833Z,2.03
2022-12-09T07:49:22.588Z,2.05
2022-12-09T07:51:49.538Z,2.06
2022-12-09T07:54:17.110Z,2.08
2022-12-09T07:56:43.665Z,2.12
2022-12-09T07:59:10.389Z,2.14
2022-12-09T08:01:37.163Z,2.16
2022-12-09T08:04:05.199Z,2.16
2022-12-09T08:06:32.203Z,2.16
2022-12-09T08:08:59.845Z,2.14
2022-12-09T08:11:27.527Z,2.15
2022-12-09T08:13:55.907Z,2.22
2022-12-09T08:16:23.147Z,2.24
2022-12-09T08:18:50.668Z,2.27
2022-12-09T08:21:35.920Z,2.27
2022-12-09T08:24:03.321Z,2.30
2022-12-09T08:26:30.692Z,2.34
2022-12-09T08:28:57.402Z,2.37
2022-12-09T08:31:25.623Z,2.40
2022-12-09T08:33:52.925Z,2.45
2022-12-09T08:36:20.426Z,2.54
2022-12-09T08:38:47.424Z,2.60
2022-12-09T08:41:21.501Z,2.67
2022-12-09T08:43:48.434Z,2.68
2022-12-09T08:46:15.459Z,2.69
2022-12-09T08:48:42.617Z,2.69
2022-12-09T08:51:09.950Z,2.69
2022-12-09T08:53:37.074Z,2.71
2022-12-09T08:56:13.698Z,2.71
2022-12-09T08:58:40.395Z,2.75
2022-12-09T09:01:07.240Z,2.78
2022-12-09T09:03:34.238Z,2.81
2022-12-09T09:06:08.750Z,2.84
2022-12-09T09:08:36.185Z,2.88
2022-12-09T09:11:10.735Z,2.91
2022-12-09T09:13:39.257Z,2.96
2022-12-09T09:16:09.441Z,2.97
2022-12-09T09:18:36.751Z,2.97
2022-12-09T09:21:03.617Z,2.97
2022-12-09T09:23:30.201Z,2.99
2022-12-09T09:25:56.814Z,3.00
2022-12-09T09:28:30.643Z,3.01
2022-12-09T09:31:01.707Z,3.02
2022-12-09T09:33:37.177Z,3.03
2022-12-09T09:36:09.631Z,3.06
2022-12-09T09:38:36.765Z,3.10
2022-12-09T09:41:06.994Z,3.11
2022-12-09T09:43:34.353Z,3.11
2022-12-09T09:46:01.165Z,3.12
2022-12-09T09:48:28.889Z,3.15
2022-12-09T09:50:58.542Z,3.19
2022-12-09T09:53:26.813Z,3.19
2022-12-09T09:55:57.533Z,3.20
2022-12-09T09:58:26.203Z,3.26
2022-12-09T10:00:53.307Z,3.27
2022-12-09T10:03:20.065Z,2.77
2022-12-09T10:05:50.284Z,3.25
2022-12-09T10:08:26.235Z,3.25
2022-12-09T10:10:56.737Z,3.24
2022-12-09T10:13:37.545Z,3.24
2022-12-09T10:16:17.946Z,3.27
2022-12-09T10:18:48.132Z,3.32
2022-12-09T10:21:18.164Z,3.33
2022-12-09T10:23:45.243Z,3.36
2022-12-09T10:26:28.178Z,3.41
2022-12-09T10:29:18.070Z,3.50
2022-12-09T10:31:44.631Z,3.46
2022-12-09T10:34:12.607Z,3.45
2022-12-09T10:36:39.480Z,3.48
2022-12-09T10:39:06.236Z,3.53
2022-12-09T10:41:54.655Z,3.54
2022-12-09T10:44:21.920Z,3.56
2022-12-09T10:46:48.761Z,3.48
2022-12-09T10:49:19.378Z,3.52
2022-12-09T10:51:50.236Z,3.50
2022-12-09T10:54:21.020Z,3.41
2022-12-09T10:57:02.156Z,3.42
2022-12-09T10:59:29.971Z,3.49
2022-12-09T11:01:56.788Z,3.47
2022-12-09T11:04:30.781Z,3.44
2022-12-09T11:07:00.144Z,3.45
2022-12-09T11:09:32.093Z,3.41
2022-12-09T11:11:59.277Z,3.32
2022-12-09T11:14:25.878Z,3.28
2022-12-09T11:16:52.980Z,3.25
2022-12-09T11:19:28.550Z,3.26
2022-12-09T11:22:04.080Z,3.29
2022-12-09T11:24:31.063Z,3.30
2022-12-09T11:26:58.102Z,3.25
2022-12-09T11:29:24.823Z,3.23
2022-12-09T11:31:51.515Z,3.22
2022-12-09T11:34:20.930Z,3.18
2022-12-09T11:36:51.466Z,3.12
2022-12-09T11:39:27.150Z,3.18
2022-12-09T11:42:18.614Z,3.17
2022-12-09T11:45:06.293Z,3.16
2022-12-09T11:47:50.417Z,3.18
2022-12-09T11:50:24.141Z,3.09
2022-12-09T11:53:09.470Z,3.04
2022-12-09T11:55:36.663Z,3.02
2022-12-09T11:58:04.224Z,3.00
2022-12-09T12:00:34.205Z,2.97
2022-12-09T12:03:23.403Z,2.95
2022-12-09T12:05:50.433Z,2.96
2022-12-09T12:08:19.933Z,2.94
2022-12-09T12:10:55.656Z,2.94
2022-12-09T12:13:29.228Z,2.95
2022-12-09T12:15:59.020Z,2.95
2022-12-09T12:18:25.414Z,2.93
2022-12-09T12:21:09.404Z,2.90
2022-12-09T12:23:35.788Z,2.87
2022-12-09T12:26:24.983Z,2.83
2022-12-09T12:29:11.170Z,2.81
2022-12-09T12:31:53.278Z,2.83
2022-12-09T12:34:39.070Z,2.82
2022-12-09T12:37:18.617Z,2.82
2022-12-09T12:40:03.928Z,2.81
2022-12-09T12:42:33.250Z,2.80
2022-12-09T12:45:19.798Z,2.77
2022-12-09T12:47:47.291Z,2.76
2022-12-09T12:50:32.421Z,2.77
2022-12-09T12:53:18.241Z,2.75
2022-12-09T12:55:57.413Z,2.73
2022-12-09T12:58:23.813Z,2.72
2022-12-09T13:01:04.935Z,2.72
2022-12-09T13:03:50.307Z,2.74
2022-12-09T13:06:17.717Z,2.74
2022-12-09T13:09:02.796Z,2.71
2022-12-09T13:11:35.660Z,2.68
2022-12-09T13:14:03.522Z,2.68
2022-12-09T13:16:31.693Z,2.74
2022-12-09T13:19:19.174Z,2.64
2022-12-09T13:21:45.737Z,2.60
2022-12-09T13:24:22.005Z,2.57
2022-12-09T13:26:51.515Z,2.50
2022-12-09T13:29:21.187Z,2.46
2022-12-09T13:32:02.756Z,2.41
2022-12-09T13:34:32.170Z,2.40
2022-12-09T13:36:58.594Z,2.40
2022-12-09T13:39:40.353Z,2.40
2022-12-09T13:42:46.359Z,2.44
2022-12-09T13:45:25.056Z,2.43
2022-12-09T13:47:53.317Z,2.43
2022-12-09T13:50:26.399Z,2.40
2022-12-09T13:52:53.745Z,2.38
2022-12-09T13:55:22.849Z,2.32
2022-12-09T13:58:08.229Z,2.28
2022-12-09T14:00:34.635Z,2.25
2022-12-09T14:03:02.795Z,2.23
2022-12-09T14:05:29.529Z,2.22
2022-12-09T14:08:00.319Z,2.22
2022-12-09T14:10:46.365Z,2.27
2022-12-09T14:13:19.556Z,2.27
2022-12-09T14:15:46.536Z,2.25
2022-12-09T14:18:26.227Z,2.25
2022-12-09T14:21:11.473Z,2.23
2022-12-09T14:23:38.292Z,2.22
2022-12-09T14:26:05.947Z,2.20
2022-12-09T14:28:36.866Z,2.25
2022-12-09T14:31:08.470Z,2.27
2022-12-09T14:33:35.488Z,2.27
2022-12-09T14:36:06.479Z,2.21
2022-12-09T14:39:07.764Z,2.16
2022-12-09T14:41:36.944Z,2.13
2022-12-09T14:44:08.719Z,2.09
2022-12-09T14:46:38.882Z,2.07
2022-12-09T14:49:31.855Z,2.07
2022-12-09T14:52:03.468Z,2.01
2022-12-09T14:54:33.647Z,1.96
2022-12-09T14:57:00.884Z,1.87
2022-12-09T14:59:28.185Z,1.83
2022-12-09T15:01:56.319Z,1.82
2022-12-09T15:04:33.512Z,1.80
2022-12-09T15:07:16.206Z,1.74
2022-12-09T15:09:51.810Z,1.70
2022-12-09T15:12:18.447Z,1.75
2022-12-09T15:14:45.068Z,1.73
2022-12-09T15:17:15.595Z,1.75
2022-12-09T15:22:29.422Z,1.68
2022-12-09T15:24:55.867Z,1.67
2022-12-09T15:27:22.993Z,1.70
2022-12-09T15:29:49.500Z,1.75
2022-12-09T15:32:20.317Z,1.74
2022-12-09T15:34:46.947Z,1.69
2022-12-09T15:37:13.397Z,1.71
2022-12-09T15:39:44.919Z,1.73
2022-12-09T15:42:12.905Z,1.79
2022-12-09T15:44:44.442Z,1.82
2022-12-09T15:47:13.882Z,1.77
2022-12-09T15:49:42.774Z,1.75
2022-12-09T15:52:09.204Z,1.78
2022-12-09T15:54:36.569Z,1.81
2022-12-09T15:57:03.670Z,1.83
2022-12-09T15:59:31.918Z,1.84
2022-12-09T16:01:58.512Z,1.84
2022-12-09T16:04:32.368Z,1.85
2022-12-09T16:07:04.453Z,1.87
2022-12-09T16:09:30.865Z,1.90
2022-12-09T16:11:57.316Z,1.90
2022-12-09T16:14:23.978Z,1.89
2022-12-09T16:16:51.460Z,1.87
2022-12-09T16:19:34.700Z,1.86
2022-12-09T16:22:05.960Z,1.85
2022-12-09T16:24:50.817Z,1.82
2022-12-09T16:27:19.799Z,1.80
2022-12-09T16:29:47.696Z,1.79
2022-12-09T16:32:28.292Z,1.80
2022-12-09T16:34:55.723Z,1.78
2022-12-09T16:37:37.406Z,1.77
2022-12-09T16:40:28.423Z,1.77
2022-12-09T16:42:55.775Z,1.76
2022-12-09T16:45:51.720Z,1.75
2022-12-09T16:48:18.956Z,1.74
2022-12-09T16:50:45.404Z,1.75
2022-12-09T16:53:16.043Z,1.74
2022-12-09T16:55:52.510Z,1.74
2022-12-09T16:58:18.996Z,1.75
2022-12-09T17:00:45.471Z,1.75
2022-12-09T17:03:35.374Z,1.76
2022-12-09T17:06:01.774Z,1.75
2022-12-09T17:08:28.271Z,1.75
2022-12-09T17:10:54.768Z,1.77
2022-12-09T17:13:21.182Z,1.75
2022-12-09T17:15:47.705Z,1.75
2022-12-09T17:18:14.400Z,1.77
2022-12-09T17:20:40.801Z,1.76
2022-12-09T17:23:07.227Z,1.77
2022-12-09T17:25:33.667Z,1.74
2022-12-09T17:28:03.775Z,1.73
2022-12-09T17:30:30.238Z,1.73
2022-12-09T17:32:58.102Z,1.73
2022-12-09T17:35:24.513Z,1.74
2022-12-09T17:37:50.939Z,1.75
2022-12-09T17:40:17.407Z,1.77
2022-12-09T17:42:49.047Z,1.79
2022-12-09T17:45:15.493Z,1.81
2022-12-09T17:47:42.122Z,1.83
2022-12-09T17:50:09.376Z,1.83
2022-12-09T17:52:36.041Z,1.85
2022-12-09T17:55:02.519Z,1.85
2022-12-09T17:57:29.004Z,1.86
2022-12-09T17:59:55.410Z,1.85
2022-12-09T18:02:21.943Z,1.85
2022-12-09T18:04:48.552Z,1.85
2022-12-09T18:07:15.119Z,1.85
2022-12-09T18:09:41.808Z,1.85
2022-12-09T18:12:08.366Z,1.86
2022-12-09T18:14:34.839Z,1.85
2022-12-09T18:17:01.394Z,1.85
2022-12-09T18:19:28.459Z,1.84
2022-12-09T18:21:55.639Z,1.85
2022-12-09T18:24:22.212Z,1.87
2022-12-09T18:26:48.766Z,1.86
2022-12-09T18:29:15.539Z,1.87
2022-12-09T18:31:45.566Z,1.87
2022-12-09T18:34:12.080Z,1.89
2022-12-09T18:36:38.639Z,1.88
2022-12-09T18:39:05.211Z,1.86
2022-12-09T18:41:31.991Z,1.87
2022-12-09T18:44:00.642Z,1.87
2022-12-09T18:46:28.056Z,1.86
2022-12-09T18:48:55.271Z,1.85
2022-12-09T18:51:21.758Z,1.85
2022-12-09T18:53:53.347Z,1.84
2022-12-09T18:56:19.829Z,1.80
2022-12-09T19:01:32.801Z,1.77
2022-12-09T19:04:02.602Z,1.74
2022-12-09T19:06:38.905Z,1.72
2022-12-09T19:09:06.510Z,1.71
2022-12-09T19:11:33.669Z,1.70
2022-12-09T19:14:00.202Z,1.70
2022-12-09T19:16:26.890Z,1.70
2022-12-09T19:18:53.684Z,1.69
2022-12-09T19:21:20.791Z,1.68
2022-12-09T19:23:47.659Z,1.67
2022-12-09T19:26:15.049Z,1.66
2022-12-09T19:28:46.398Z,1.66
2022-12-09T19:31:16.666Z,1.64
2022-12-09T19:33:43.267Z,1.63
2022-12-09T19:36:10.089Z,1.64
2022-12-09T19:38:36.536Z,1.63
2022-12-09T19:41:02.989Z,1.63
2022-12-09T19:43:29.433Z,1.63
2022-12-09T19:45:55.987Z,1.63
2022-12-09T19:48:22.464Z,1.64
2022-12-09T19:50:48.913Z,1.64
2022-12-09T19:53:15.359Z,1.66
2022-12-09T19:55:41.868Z,1.65
2022-12-09T19:58:09.249Z,1.65
2022-12-09T20:00:41.420Z,1.65
2022-12-09T20:03:08.306Z,1.66
2022-12-09T20:05:35.032Z,1.66
2022-12-09T20:08:01.488Z,1.65
2022-12-09T20:10:28.023Z,1.66
2022-12-09T20:12:54.495Z,1.65
2022-12-09T20:15:20.898Z,1.64
2022-12-09T20:17:47.328Z,1.63
2022-12-09T20:20:13.909Z,1.63
2022-12-09T20:23:02.427Z,1.63
2022-12-09T20:25:29.172Z,1.63
2022-12-09T20:27:55.669Z,1.59
2022-12-09T20:30:22.394Z,1.56
2022-12-09T20:32:48.807Z,1.54
2022-12-09T20:35:15.344Z,1.52
2022-12-09T20:37:42.144Z,1.50
2022-12-09T20:40:09.140Z,1.50
2022-12-09T20:42:35.817Z,1.47
2022-12-09T20:45:02.251Z,1.46
2022-12-09T20:47:28.852Z,1.46
2022-12-09T20:49:55.250Z,1.45
2022-12-09T20:52:21.667Z,1.46
2022-12-09T20:54:48.253Z,1.45
2022-12-09T20:57:14.863Z,1.43
2022-12-09T20:59:41.287Z,1.42
2022-12-09T21:02:13.616Z,1.45
2022-12-09T21:04:40.285Z,1.46
2022-12-09T21:07:06.723Z,1.49
2022-12-09T21:09:33.332Z,1.49
2022-12-09T21:12:00.346Z,1.45
2022-12-09T21:14:32.440Z,1.45
2022-12-09T21:16:59.381Z,1.47
2022-12-09T21:19:30.404Z,1.46
2022-12-09T21:21:56.911Z,1.44
2022-12-09T21:24:24.617Z,1.41
2022-12-09T21:26:53.409Z,1.41
2022-12-09T21:29:20.293Z,1.40
2022-12-09T21:31:50.437Z,1.39
2022-12-09T21:34:17.770Z,1.37
2022-12-09T21:36:44.413Z,1.36
2022-12-09T21:39:11.910Z,1.35
2022-12-09T21:41:38.389Z,1.34
2022-12-09T21:44:05.084Z,1.34
2022-12-09T21:46:33.498Z,1.36
2022-12-09T21:49:03.944Z,1.36
2022-12-09T21:51:31.221Z,1.39
2022-12-09T21:53:57.990Z,1.40
2022-12-09T21:56:25.105Z,1.44
2022-12-09T21:58:52.256Z,1.44
2022-12-09T22:01:19.762Z,1.43
2022-12-09T22:03:46.445Z,1.42
2022-12-09T22:06:12.939Z,1.40
2022-12-09T22:08:39.638Z,1.41
2022-12-09T22:11:09.851Z,1.41
2022-12-09T22:13:39.596Z,1.40
2022-12-09T22:16:26.917Z,1.38
2022-12-09T22:18:53.767Z,1.38
2022-12-09T22:21:25.632Z,1.40
2022-12-09T22:23:56.288Z,1.41
2022-12-09T22:26:22.810Z,1.40
2022-12-09T22:28:49.396Z,1.38
2022-12-09T22:31:17.452Z,1.39
2022-12-09T22:33:44.295Z,1.39
2022-12-09T22:36:11.019Z,1.40
2022-12-09T22:38:37.896Z,1.46
2022-12-09T22:41:04.852Z,1.46
2022-12-09T22:43:36.481Z,1.41
2022-12-09T22:46:05.175Z,1.31
2022-12-09T22:48:31.675Z,1.24
2022-12-09T22:51:08.691Z,1.16
2022-12-09T22:53:35.109Z,1.12
2022-12-09T22:56:01.570Z,1.15
2022-12-09T22:58:28.116Z,1.14
2022-12-09T23:00:54.665Z,1.14
2022-12-09T23:03:26.390Z,1.10
2022-12-09T23:05:52.900Z,1.06
2022-12-09T23:08:19.379Z,1.02
2022-12-09T23:10:45.933Z,1.00
2022-12-09T23:13:12.389Z,1.05
2022-12-09T23:15:38.859Z,1.04
2022-12-09T23:18:05.360Z,0.93
2022-12-09T23:20:32.388Z,0.86
2022-12-09T23:22:58.824Z,0.85
2022-12-09T23:25:25.289Z,0.85
2022-12-09T23:27:51.711Z,0.81
2022-12-09T23:30:18.174Z,0.81
2022-12-09T23:32:44.825Z,0.80
2022-12-09T23:35:11.447Z,0.80
2022-12-09T23:37:37.848Z,0.82
2022-12-09T23:40:05.312Z,0.80
2022-12-09T23:42:31.901Z,0.82
2022-12-09T23:44:58.533Z,0.85
2022-12-09T23:47:25.152Z,0.83
2022-12-09T23:49:51.562Z,0.85
2022-12-09T23:52:18.268Z,0.85
2022-12-09T23:54:44.676Z,0.86
2022-12-09T23:57:11.110Z,0.91
2022-12-09T23:59:37.625Z,0.99
